Aérodrome :
LOGIN :

S'inscrire | Disclaimer

   EN    FR    IT 

 










Légende :    VFR   VFR Marginal   IFR   IFR Intensif   IFR Très Intensif
Visi : 
Plafond : 
>= 8 km
>= 3000ft
5 à 8 km
1000 à 3000 ft
1500m à 5 km
500 à 1000 ft
800 à 1500m
200 à 500 ft
< 800m
< 200 ft
Symboles :   Orages  Brouillard  Fortes neiges  Fortes précipitations  Vent > 20 kt
SIGMETs :   Divers  Orages  Givrage  Turbulence  Onde Orograph.  Cendres Volcan.






- Altitude de l'aérodrome : 989 ft
- Code IATA : TRN


LIMF - Torino Caselle

DERNIER METAR :
  • 100950Z 23003KT 190V250 CAVOK 10/M01 Q1020

METARs EXPIRÉS :
  • 100920Z 22003KT 140V280 CAVOK 09/M02 Q1019
  • 100850Z VRB02KT CAVOK 07/M01 Q1019
  • 100820Z VRB02KT CAVOK 05/M02 Q1018
  • 100750Z 28007KT CAVOK 04/M04 Q1018
  • 100720Z 26003KT 220V290 CAVOK 03/M04 Q1017

TAF TAF LIMF
Valide du 10 à 06h jusqu'au 11 à 06h UTC


100500Z 1006/1106 30010KT CAVOK



MET'MAP, la Météo Aéronautique d'un coup d'oeil ! - Copyright ORBIFLY Décembre 2007 - Disclaimer

ORBIFLY MET'MAP TEAM :

Programmation & Développement : Alexandra Zaïnal
Sur une idée originale de : Baudouin d'Aumeries
Assistance à la programmation : Marc-Olivier Méhu
Soutien technique & logistique : Manuel Goepfert

Contact : metmap@orbifly.com




SOURCES & CREDITS :

   NOAA